sensor_id;sensor_type;location;lat;lon;timestamp;temperature;humidity
20759;DHT22;10539;53.686;9.158;2023-02-28T00:00:28;7.10;99.90
20759;DHT22;10539;53.686;9.158;2023-02-28T00:02:54;7.10;99.90
20759;DHT22;10539;53.686;9.158;2023-02-28T00:05:22;7.00;99.90
20759;DHT22;10539;53.686;9.158;2023-02-28T00:07:49;7.00;99.90
20759;DHT22;10539;53.686;9.158;2023-02-28T00:10:18;7.00;99.90
20759;DHT22;10539;53.686;9.158;2023-02-28T00:12:52;6.90;99.90
20759;DHT22;10539;53.686;9.158;2023-02-28T00:15:19;6.90;99.90
20759;DHT22;10539;53.686;9.158;2023-02-28T00:17:44;6.80;99.90
20759;DHT22;10539;53.686;9.158;2023-02-28T00:20:11;6.80;99.90
20759;DHT22;10539;53.686;9.158;2023-02-28T00:22:43;6.70;99.90
20759;DHT22;10539;53.686;9.158;2023-02-28T00:25:10;6.70;99.90
20759;DHT22;10539;53.686;9.158;2023-02-28T00:27:37;6.70;99.90
20759;DHT22;10539;53.686;9.158;2023-02-28T00:30:06;6.60;99.90
20759;DHT22;10539;53.686;9.158;2023-02-28T00:32:33;6.70;99.90
20759;DHT22;10539;53.686;9.158;2023-02-28T00:35:00;6.60;99.90
20759;DHT22;10539;53.686;9.158;2023-02-28T00:37:26;6.60;99.90
20759;DHT22;10539;53.686;9.158;2023-02-28T00:39:51;6.60;99.90
20759;DHT22;10539;53.686;9.158;2023-02-28T00:42:17;6.60;99.90
20759;DHT22;10539;53.686;9.158;2023-02-28T00:44:43;6.60;99.90
20759;DHT22;10539;53.686;9.158;2023-02-28T00:47:09;6.60;99.90
20759;DHT22;10539;53.686;9.158;2023-02-28T00:49:34;6.60;99.90
20759;DHT22;10539;53.686;9.158;2023-02-28T00:52:00;6.50;99.90
20759;DHT22;10539;53.686;9.158;2023-02-28T00:54:26;6.50;99.90
20759;DHT22;10539;53.686;9.158;2023-02-28T00:56:52;6.50;99.90
20759;DHT22;10539;53.686;9.158;2023-02-28T00:59:18;6.50;99.90
20759;DHT22;10539;53.686;9.158;2023-02-28T01:01:45;6.50;99.90
20759;DHT22;10539;53.686;9.158;2023-02-28T01:04:12;6.50;99.90
20759;DHT22;10539;53.686;9.158;2023-02-28T01:06:38;6.60;99.90
20759;DHT22;10539;53.686;9.158;2023-02-28T01:09:05;6.60;99.90
20759;DHT22;10539;53.686;9.158;2023-02-28T01:11:31;6.60;99.90
20759;DHT22;10539;53.686;9.158;2023-02-28T01:13:57;6.70;99.90
20759;DHT22;10539;53.686;9.158;2023-02-28T01:16:24;6.70;99.90
20759;DHT22;10539;53.686;9.158;2023-02-28T01:18:49;6.70;99.90
20759;DHT22;10539;53.686;9.158;2023-02-28T01:21:17;6.70;99.90
20759;DHT22;10539;53.686;9.158;2023-02-28T01:23:43;6.70;99.90
20759;DHT22;10539;53.686;9.158;2023-02-28T01:26:21;6.70;99.90
20759;DHT22;10539;53.686;9.158;2023-02-28T01:28:47;6.70;99.90
20759;DHT22;10539;53.686;9.158;2023-02-28T01:31:14;6.60;99.90
20759;DHT22;10539;53.686;9.158;2023-02-28T01:33:40;6.50;99.90
20759;DHT22;10539;53.686;9.158;2023-02-28T01:36:15;6.50;99.90
20759;DHT22;10539;53.686;9.158;2023-02-28T01:38:42;6.40;99.90
20759;DHT22;10539;53.686;9.158;2023-02-28T01:41:15;6.30;99.90
20759;DHT22;10539;53.686;9.158;2023-02-28T01:46:10;6.30;99.90
20759;DHT22;10539;53.686;9.158;2023-02-28T01:48:50;6.20;99.90
20759;DHT22;10539;53.686;9.158;2023-02-28T01:51:22;6.20;99.90
20759;DHT22;10539;53.686;9.158;2023-02-28T01:53:52;6.20;99.90
20759;DHT22;10539;53.686;9.158;2023-02-28T01:56:24;6.10;99.90
20759;DHT22;10539;53.686;9.158;2023-02-28T01:58:52;6.20;99.90
20759;DHT22;10539;53.686;9.158;2023-02-28T02:01:20;6.10;99.90
20759;DHT22;10539;53.686;9.158;2023-02-28T02:03:49;6.10;99.90
20759;DHT22;10539;53.686;9.158;2023-02-28T02:06:30;6.10;99.90
20759;DHT22;10539;53.686;9.158;2023-02-28T02:08:58;6.10;99.90
20759;DHT22;10539;53.686;9.158;2023-02-28T02:11:25;6.10;99.90
20759;DHT22;10539;53.686;9.158;2023-02-28T02:19:46;6.10;99.90
20759;DHT22;10539;53.686;9.158;2023-02-28T02:27:32;6.10;99.90
20759;DHT22;10539;53.686;9.158;2023-02-28T02:32:55;6.20;99.90
20759;DHT22;10539;53.686;9.158;2023-02-28T02:35:27;6.10;99.90
20759;DHT22;10539;53.686;9.158;2023-02-28T02:40:40;6.20;99.90
20759;DHT22;10539;53.686;9.158;2023-02-28T02:43:16;6.20;99.90
20759;DHT22;10539;53.686;9.158;2023-02-28T02:45:52;6.30;99.90
20759;DHT22;10539;53.686;9.158;2023-02-28T02:48:26;6.30;99.90
20759;DHT22;10539;53.686;9.158;2023-02-28T02:50:56;6.30;99.90
20759;DHT22;10539;53.686;9.158;2023-02-28T02:53:36;6.30;99.90
20759;DHT22;10539;53.686;9.158;2023-02-28T02:56:04;6.30;99.90
20759;DHT22;10539;53.686;9.158;2023-02-28T02:58:35;6.30;99.90
20759;DHT22;10539;53.686;9.158;2023-02-28T03:01:12;6.30;99.90
20759;DHT22;10539;53.686;9.158;2023-02-28T03:03:40;6.30;99.90
20759;DHT22;10539;53.686;9.158;2023-02-28T03:06:06;6.30;99.90
20759;DHT22;10539;53.686;9.158;2023-02-28T03:08:36;6.20;99.90
20759;DHT22;10539;53.686;9.158;2023-02-28T03:11:05;6.20;99.90
20759;DHT22;10539;53.686;9.158;2023-02-28T03:27:29;6.00;99.90
20759;DHT22;10539;53.686;9.158;2023-02-28T03:30:09;5.90;99.90
20759;DHT22;10539;53.686;9.158;2023-02-28T03:32:41;6.00;99.90
20759;DHT22;10539;53.686;9.158;2023-02-28T03:35:16;6.00;99.90
20759;DHT22;10539;53.686;9.158;2023-02-28T03:37:49;5.90;99.90
20759;DHT22;10539;53.686;9.158;2023-02-28T03:40:25;5.90;99.90
20759;DHT22;10539;53.686;9.158;2023-02-28T03:42:58;6.00;99.90
20759;DHT22;10539;53.686;9.158;2023-02-28T03:45:28;6.00;99.90
20759;DHT22;10539;53.686;9.158;2023-02-28T03:48:02;6.00;99.90
20759;DHT22;10539;53.686;9.158;2023-02-28T03:50:37;6.00;99.90
20759;DHT22;10539;53.686;9.158;2023-02-28T03:53:23;6.00;99.90
20759;DHT22;10539;53.686;9.158;2023-02-28T03:55:59;6.00;99.90
20759;DHT22;10539;53.686;9.158;2023-02-28T03:58:37;6.00;99.90
20759;DHT22;10539;53.686;9.158;2023-02-28T04:01:10;6.00;99.90
20759;DHT22;10539;53.686;9.158;2023-02-28T04:03:38;6.00;99.90
20759;DHT22;10539;53.686;9.158;2023-02-28T04:06:06;6.00;99.90
20759;DHT22;10539;53.686;9.158;2023-02-28T04:08:33;6.00;99.90
20759;DHT22;10539;53.686;9.158;2023-02-28T04:11:08;6.00;99.90
20759;DHT22;10539;53.686;9.158;2023-02-28T04:13:40;6.00;99.90
20759;DHT22;10539;53.686;9.158;2023-02-28T04:16:09;6.00;99.90
20759;DHT22;10539;53.686;9.158;2023-02-28T04:18:39;5.90;99.90
20759;DHT22;10539;53.686;9.158;2023-02-28T04:21:06;5.90;99.90
20759;DHT22;10539;53.686;9.158;2023-02-28T04:23:32;5.90;99.90
20759;DHT22;10539;53.686;9.158;2023-02-28T04:25:58;5.80;99.90
20759;DHT22;10539;53.686;9.158;2023-02-28T04:28:25;5.80;99.90
20759;DHT22;10539;53.686;9.158;2023-02-28T04:31:09;5.80;99.90
20759;DHT22;10539;53.686;9.158;2023-02-28T04:33:35;5.80;99.90
20759;DHT22;10539;53.686;9.158;2023-02-28T04:36:06;5.70;99.90
20759;DHT22;10539;53.686;9.158;2023-02-28T04:38:35;5.60;99.90
20759;DHT22;10539;53.686;9.158;2023-02-28T04:41:01;5.50;99.90
20759;DHT22;10539;53.686;9.158;2023-02-28T04:43:28;5.50;99.90
20759;DHT22;10539;53.686;9.158;2023-02-28T04:45:55;5.50;99.90
20759;DHT22;10539;53.686;9.158;2023-02-28T04:48:25;5.40;99.90
20759;DHT22;10539;53.686;9.158;2023-02-28T04:50:51;5.40;99.90
20759;DHT22;10539;53.686;9.158;2023-02-28T04:53:18;5.40;99.90
20759;DHT22;10539;53.686;9.158;2023-02-28T04:55:44;5.30;99.90
20759;DHT22;10539;53.686;9.158;2023-02-28T04:58:10;5.30;99.90
20759;DHT22;10539;53.686;9.158;2023-02-28T05:00:36;5.30;99.90
20759;DHT22;10539;53.686;9.158;2023-02-28T05:03:02;5.20;99.90
20759;DHT22;10539;53.686;9.158;2023-02-28T05:05:28;5.20;99.90
20759;DHT22;10539;53.686;9.158;2023-02-28T05:07:54;5.10;99.90
20759;DHT22;10539;53.686;9.158;2023-02-28T05:10:22;5.10;99.90
20759;DHT22;10539;53.686;9.158;2023-02-28T05:12:47;5.10;99.90
20759;DHT22;10539;53.686;9.158;2023-02-28T05:15:14;5.10;99.90
20759;DHT22;10539;53.686;9.158;2023-02-28T05:17:41;5.10;99.90
20759;DHT22;10539;53.686;9.158;2023-02-28T05:20:07;5.10;99.90
20759;DHT22;10539;53.686;9.158;2023-02-28T05:22:37;5.10;99.90
20759;DHT22;10539;53.686;9.158;2023-02-28T05:25:03;5.00;99.90
20759;DHT22;10539;53.686;9.158;2023-02-28T05:27:30;5.00;99.90
20759;DHT22;10539;53.686;9.158;2023-02-28T05:29:56;5.00;99.90
20759;DHT22;10539;53.686;9.158;2023-02-28T05:32:22;5.00;99.90
20759;DHT22;10539;53.686;9.158;2023-02-28T05:34:48;5.00;99.90
20759;DHT22;10539;53.686;9.158;2023-02-28T05:37:15;5.00;99.90
20759;DHT22;10539;53.686;9.158;2023-02-28T05:39:41;5.00;99.90
20759;DHT22;10539;53.686;9.158;2023-02-28T05:42:07;5.00;99.90
20759;DHT22;10539;53.686;9.158;2023-02-28T05:44:35;5.00;99.90
20759;DHT22;10539;53.686;9.158;2023-02-28T05:47:01;5.00;99.90
20759;DHT22;10539;53.686;9.158;2023-02-28T05:49:27;5.00;99.90
20759;DHT22;10539;53.686;9.158;2023-02-28T05:51:53;5.00;99.90
20759;DHT22;10539;53.686;9.158;2023-02-28T05:54:18;5.10;99.90
20759;DHT22;10539;53.686;9.158;2023-02-28T05:56:44;5.10;99.90
20759;DHT22;10539;53.686;9.158;2023-02-28T05:59:14;5.10;99.90
20759;DHT22;10539;53.686;9.158;2023-02-28T06:01:42;5.10;99.90
20759;DHT22;10539;53.686;9.158;2023-02-28T06:04:14;5.00;99.90
20759;DHT22;10539;53.686;9.158;2023-02-28T06:06:47;4.90;99.90
20759;DHT22;10539;53.686;9.158;2023-02-28T06:09:13;4.70;99.90
20759;DHT22;10539;53.686;9.158;2023-02-28T06:11:39;4.60;99.90
20759;DHT22;10539;53.686;9.158;2023-02-28T06:14:05;4.60;99.90
20759;DHT22;10539;53.686;9.158;2023-02-28T06:16:33;4.60;99.90
20759;DHT22;10539;53.686;9.158;2023-02-28T06:19:02;4.60;99.90
20759;DHT22;10539;53.686;9.158;2023-02-28T06:21:28;4.60;99.90
20759;DHT22;10539;53.686;9.158;2023-02-28T06:23:55;4.70;99.90
20759;DHT22;10539;53.686;9.158;2023-02-28T06:26:21;4.70;99.90
20759;DHT22;10539;53.686;9.158;2023-02-28T06:28:48;4.80;99.90
20759;DHT22;10539;53.686;9.158;2023-02-28T06:31:15;5.00;99.90
20759;DHT22;10539;53.686;9.158;2023-02-28T06:33:43;5.40;99.90
20759;DHT22;10539;53.686;9.158;2023-02-28T06:36:10;5.70;99.90
20759;DHT22;10539;53.686;9.158;2023-02-28T06:38:38;5.90;99.90
20759;DHT22;10539;53.686;9.158;2023-02-28T06:41:04;6.20;99.90
20759;DHT22;10539;53.686;9.158;2023-02-28T06:43:33;6.30;99.90
20759;DHT22;10539;53.686;9.158;2023-02-28T06:46:00;6.50;99.90
20759;DHT22;10539;53.686;9.158;2023-02-28T06:48:27;6.70;99.90
20759;DHT22;10539;53.686;9.158;2023-02-28T06:51:02;7.00;99.90
20759;DHT22;10539;53.686;9.158;2023-02-28T06:53:28;7.20;99.90
20759;DHT22;10539;53.686;9.158;2023-02-28T06:55:54;7.40;99.90
20759;DHT22;10539;53.686;9.158;2023-02-28T06:58:19;7.50;99.90
20759;DHT22;10539;53.686;9.158;2023-02-28T07:00:49;7.50;99.90
20759;DHT22;10539;53.686;9.158;2023-02-28T07:03:16;7.70;99.90
20759;DHT22;10539;53.686;9.158;2023-02-28T07:05:43;7.80;99.90
20759;DHT22;10539;53.686;9.158;2023-02-28T07:08:08;8.00;99.90
20759;DHT22;10539;53.686;9.158;2023-02-28T07:10:36;8.10;99.90
20759;DHT22;10539;53.686;9.158;2023-02-28T07:13:03;8.10;99.90
20759;DHT22;10539;53.686;9.158;2023-02-28T07:15:29;8.30;99.90
20759;DHT22;10539;53.686;9.158;2023-02-28T07:17:54;8.50;99.90
20759;DHT22;10539;53.686;9.158;2023-02-28T07:20:22;8.60;99.90
20759;DHT22;10539;53.686;9.158;2023-02-28T07:22:49;8.60;99.90
20759;DHT22;10539;53.686;9.158;2023-02-28T07:25:24;8.50;99.90
20759;DHT22;10539;53.686;9.158;2023-02-28T07:27:50;8.40;99.90
20759;DHT22;10539;53.686;9.158;2023-02-28T07:30:16;8.30;99.90
20759;DHT22;10539;53.686;9.158;2023-02-28T07:32:42;8.20;99.90
20759;DHT22;10539;53.686;9.158;2023-02-28T07:35:08;8.00;99.90
20759;DHT22;10539;53.686;9.158;2023-02-28T07:37:34;7.90;99.90
20759;DHT22;10539;53.686;9.158;2023-02-28T07:40:07;7.80;99.90
20759;DHT22;10539;53.686;9.158;2023-02-28T07:42:37;7.80;99.90
20759;DHT22;10539;53.686;9.158;2023-02-28T07:45:04;7.60;99.90
20759;DHT22;10539;53.686;9.158;2023-02-28T07:47:31;7.50;99.90
20759;DHT22;10539;53.686;9.158;2023-02-28T07:49:57;7.40;99.90
20759;DHT22;10539;53.686;9.158;2023-02-28T07:52:23;7.40;99.90
20759;DHT22;10539;53.686;9.158;2023-02-28T07:54:52;7.30;99.90
20759;DHT22;10539;53.686;9.158;2023-02-28T07:57:17;7.30;99.90
20759;DHT22;10539;53.686;9.158;2023-02-28T07:59:43;7.20;99.90
20759;DHT22;10539;53.686;9.158;2023-02-28T08:02:13;7.10;99.90
20759;DHT22;10539;53.686;9.158;2023-02-28T08:04:39;7.00;99.90
20759;DHT22;10539;53.686;9.158;2023-02-28T08:07:05;7.00;99.90
20759;DHT22;10539;53.686;9.158;2023-02-28T08:09:31;6.90;99.90
20759;DHT22;10539;53.686;9.158;2023-02-28T08:11:57;6.80;99.90
20759;DHT22;10539;53.686;9.158;2023-02-28T08:14:23;6.80;99.90
20759;DHT22;10539;53.686;9.158;2023-02-28T08:16:49;6.80;99.90
20759;DHT22;10539;53.686;9.158;2023-02-28T08:19:15;6.90;99.90
20759;DHT22;10539;53.686;9.158;2023-02-28T08:21:40;6.90;99.90
20759;DHT22;10539;53.686;9.158;2023-02-28T08:24:06;6.90;99.90
20759;DHT22;10539;53.686;9.158;2023-02-28T08:26:32;7.00;99.90
20759;DHT22;10539;53.686;9.158;2023-02-28T08:28:58;7.00;99.90
20759;DHT22;10539;53.686;9.158;2023-02-28T08:31:24;7.00;99.90
20759;DHT22;10539;53.686;9.158;2023-02-28T08:33:49;7.10;99.90
20759;DHT22;10539;53.686;9.158;2023-02-28T08:36:17;7.10;99.90
20759;DHT22;10539;53.686;9.158;2023-02-28T08:38:44;7.00;99.90
20759;DHT22;10539;53.686;9.158;2023-02-28T08:41:11;7.00;99.90
20759;DHT22;10539;53.686;9.158;2023-02-28T08:43:38;7.10;99.90
20759;DHT22;10539;53.686;9.158;2023-02-28T08:46:04;7.10;99.90
20759;DHT22;10539;53.686;9.158;2023-02-28T08:48:32;7.20;99.90
20759;DHT22;10539;53.686;9.158;2023-02-28T08:51:01;7.30;99.90
20759;DHT22;10539;53.686;9.158;2023-02-28T08:53:26;7.40;99.90
20759;DHT22;10539;53.686;9.158;2023-02-28T08:56:00;7.50;99.90
20759;DHT22;10539;53.686;9.158;2023-02-28T08:58:27;7.60;99.90
20759;DHT22;10539;53.686;9.158;2023-02-28T09:00:53;7.70;99.90
20759;DHT22;10539;53.686;9.158;2023-02-28T09:03:19;7.80;99.90
20759;DHT22;10539;53.686;9.158;2023-02-28T09:05:54;7.80;99.90
20759;DHT22;10539;53.686;9.158;2023-02-28T09:08:21;7.80;99.90
20759;DHT22;10539;53.686;9.158;2023-02-28T09:10:47;7.80;99.90
20759;DHT22;10539;53.686;9.158;2023-02-28T09:13:13;7.90;99.90
20759;DHT22;10539;53.686;9.158;2023-02-28T09:15:39;8.00;99.90
20759;DHT22;10539;53.686;9.158;2023-02-28T09:18:05;8.10;99.90
20759;DHT22;10539;53.686;9.158;2023-02-28T09:20:30;8.10;99.90
20759;DHT22;10539;53.686;9.158;2023-02-28T09:22:56;8.10;99.90
20759;DHT22;10539;53.686;9.158;2023-02-28T09:25:22;8.20;99.90
20759;DHT22;10539;53.686;9.158;2023-02-28T09:27:47;8.20;99.90
20759;DHT22;10539;53.686;9.158;2023-02-28T09:30:14;8.20;99.90
20759;DHT22;10539;53.686;9.158;2023-02-28T09:32:39;8.30;99.90
20759;DHT22;10539;53.686;9.158;2023-02-28T09:35:05;8.40;99.90
20759;DHT22;10539;53.686;9.158;2023-02-28T09:37:31;8.40;99.90
20759;DHT22;10539;53.686;9.158;2023-02-28T09:39:57;8.50;99.90
20759;DHT22;10539;53.686;9.158;2023-02-28T09:42:31;8.60;99.90
20759;DHT22;10539;53.686;9.158;2023-02-28T09:45:00;8.60;99.90
20759;DHT22;10539;53.686;9.158;2023-02-28T09:47:30;8.70;99.90
20759;DHT22;10539;53.686;9.158;2023-02-28T09:52:42;8.90;99.90
20759;DHT22;10539;53.686;9.158;2023-02-28T09:55:37;9.00;99.90
20759;DHT22;10539;53.686;9.158;2023-02-28T09:58:05;9.00;99.90
20759;DHT22;10539;53.686;9.158;2023-02-28T10:00:37;9.00;99.90
20759;DHT22;10539;53.686;9.158;2023-02-28T10:03:27;9.00;99.90
20759;DHT22;10539;53.686;9.158;2023-02-28T10:06:39;9.00;99.90
20759;DHT22;10539;53.686;9.158;2023-02-28T10:09:19;9.00;99.90
20759;DHT22;10539;53.686;9.158;2023-02-28T10:11:50;9.00;99.90
20759;DHT22;10539;53.686;9.158;2023-02-28T10:14:23;9.10;99.90
20759;DHT22;10539;53.686;9.158;2023-02-28T10:16:59;9.20;99.90
20759;DHT22;10539;53.686;9.158;2023-02-28T10:19:38;9.30;99.90
20759;DHT22;10539;53.686;9.158;2023-02-28T10:24:41;9.30;99.90
20759;DHT22;10539;53.686;9.158;2023-02-28T10:27:31;9.40;99.90
20759;DHT22;10539;53.686;9.158;2023-02-28T10:29:59;9.50;99.90
20759;DHT22;10539;53.686;9.158;2023-02-28T10:32:31;9.50;99.90
20759;DHT22;10539;53.686;9.158;2023-02-28T10:37:27;9.50;99.90
20759;DHT22;10539;53.686;9.158;2023-02-28T10:39:53;9.60;99.90
20759;DHT22;10539;53.686;9.158;2023-02-28T10:47:31;9.60;99.90
20759;DHT22;10539;53.686;9.158;2023-02-28T10:49:58;9.50;99.90
20759;DHT22;10539;53.686;9.158;2023-02-28T10:52:40;9.60;99.90
20759;DHT22;10539;53.686;9.158;2023-02-28T10:55:24;9.60;99.90
20759;DHT22;10539;53.686;9.158;2023-02-28T10:57:51;9.50;99.90
20759;DHT22;10539;53.686;9.158;2023-02-28T11:02:47;9.00;99.90
20759;DHT22;10539;53.686;9.158;2023-02-28T11:05:33;9.00;99.90
20759;DHT22;10539;53.686;9.158;2023-02-28T11:08:13;8.90;99.90
20759;DHT22;10539;53.686;9.158;2023-02-28T11:10:44;8.80;99.90
20759;DHT22;10539;53.686;9.158;2023-02-28T11:13:19;8.70;99.90
20759;DHT22;10539;53.686;9.158;2023-02-28T11:15:57;8.50;99.90
20759;DHT22;10539;53.686;9.158;2023-02-28T11:23:51;8.40;99.90
20759;DHT22;10539;53.686;9.158;2023-02-28T11:26:45;8.50;99.90
20759;DHT22;10539;53.686;9.158;2023-02-28T11:32:13;8.70;99.90
20759;DHT22;10539;53.686;9.158;2023-02-28T11:34:42;8.80;99.90
20759;DHT22;10539;53.686;9.158;2023-02-28T11:37:15;8.80;99.90
20759;DHT22;10539;53.686;9.158;2023-02-28T11:39:42;8.80;99.90
20759;DHT22;10539;53.686;9.158;2023-02-28T11:48:08;8.70;99.90
20759;DHT22;10539;53.686;9.158;2023-02-28T12:10:48;8.90;99.90
20759;DHT22;10539;53.686;9.158;2023-02-28T12:13:26;8.90;99.90
20759;DHT22;10539;53.686;9.158;2023-02-28T12:21:31;8.70;99.90
20759;DHT22;10539;53.686;9.158;2023-02-28T12:24:14;8.70;99.90
20759;DHT22;10539;53.686;9.158;2023-02-28T12:26:49;8.70;99.90
20759;DHT22;10539;53.686;9.158;2023-02-28T12:29:27;8.80;99.90
20759;DHT22;10539;53.686;9.158;2023-02-28T12:32:33;8.90;99.90
20759;DHT22;10539;53.686;9.158;2023-02-28T12:35:06;9.00;99.90
20759;DHT22;10539;53.686;9.158;2023-02-28T12:37:37;9.00;99.90
20759;DHT22;10539;53.686;9.158;2023-02-28T12:40:11;9.00;99.90
20759;DHT22;10539;53.686;9.158;2023-02-28T12:43:05;9.00;99.90
20759;DHT22;10539;53.686;9.158;2023-02-28T12:45:51;8.80;99.90
20759;DHT22;10539;53.686;9.158;2023-02-28T12:48:33;8.80;99.90
20759;DHT22;10539;53.686;9.158;2023-02-28T12:51:06;8.80;99.90
20759;DHT22;10539;53.686;9.158;2023-02-28T12:59:10;8.90;99.90
20759;DHT22;10539;53.686;9.158;2023-02-28T13:10:12;8.80;99.90
20759;DHT22;10539;53.686;9.158;2023-02-28T13:12:48;8.70;99.90
20759;DHT22;10539;53.686;9.158;2023-02-28T13:15:21;8.60;99.90
20759;DHT22;10539;53.686;9.158;2023-02-28T13:17:54;8.80;99.90
20759;DHT22;10539;53.686;9.158;2023-02-28T13:20:24;8.80;99.90
20759;DHT22;10539;53.686;9.158;2023-02-28T13:22:53;8.90;99.90
20759;DHT22;10539;53.686;9.158;2023-02-28T13:27:53;9.00;99.90
20759;DHT22;10539;53.686;9.158;2023-02-28T13:38:37;8.60;99.90
20759;DHT22;10539;53.686;9.158;2023-02-28T13:41:43;8.60;99.90
20759;DHT22;10539;53.686;9.158;2023-02-28T13:44:22;8.50;99.90
20759;DHT22;10539;53.686;9.158;2023-02-28T13:54:57;8.60;99.90
20759;DHT22;10539;53.686;9.158;2023-02-28T14:03:13;8.60;99.90
20759;DHT22;10539;53.686;9.158;2023-02-28T14:05:42;8.70;99.90
20759;DHT22;10539;53.686;9.158;2023-02-28T14:08:18;8.70;99.90
20759;DHT22;10539;53.686;9.158;2023-02-28T14:11:01;8.80;99.90
20759;DHT22;10539;53.686;9.158;2023-02-28T14:16:05;8.80;99.90
20759;DHT22;10539;53.686;9.158;2023-02-28T14:18:34;8.60;99.90
20759;DHT22;10539;53.686;9.158;2023-02-28T14:24:00;8.50;99.90
20759;DHT22;10539;53.686;9.158;2023-02-28T14:32:13;8.60;99.90
20759;DHT22;10539;53.686;9.158;2023-02-28T14:37:38;8.40;99.90
20759;DHT22;10539;53.686;9.158;2023-02-28T14:40:11;8.50;99.90
20759;DHT22;10539;53.686;9.158;2023-02-28T14:42:37;8.50;99.90
20759;DHT22;10539;53.686;9.158;2023-02-28T14:45:21;8.50;99.90
20759;DHT22;10539;53.686;9.158;2023-02-28T14:47:49;8.50;99.90
20759;DHT22;10539;53.686;9.158;2023-02-28T14:50:21;8.50;99.90
20759;DHT22;10539;53.686;9.158;2023-02-28T14:52:52;8.50;99.90
20759;DHT22;10539;53.686;9.158;2023-02-28T14:55:19;8.50;99.90
20759;DHT22;10539;53.686;9.158;2023-02-28T14:57:55;8.50;99.90
20759;DHT22;10539;53.686;9.158;2023-02-28T15:00:30;8.50;99.90
20759;DHT22;10539;53.686;9.158;2023-02-28T15:02:58;8.40;99.90
20759;DHT22;10539;53.686;9.158;2023-02-28T15:05:33;8.40;99.90
20759;DHT22;10539;53.686;9.158;2023-02-28T15:08:16;8.40;99.90
20759;DHT22;10539;53.686;9.158;2023-02-28T15:10:53;8.40;99.90
20759;DHT22;10539;53.686;9.158;2023-02-28T15:13:20;8.40;99.90
20759;DHT22;10539;53.686;9.158;2023-02-28T15:18:31;8.30;99.90
20759;DHT22;10539;53.686;9.158;2023-02-28T15:21:13;8.20;99.90
20759;DHT22;10539;53.686;9.158;2023-02-28T15:23:41;8.20;99.90
20759;DHT22;10539;53.686;9.158;2023-02-28T15:26:13;8.30;99.90
20759;DHT22;10539;53.686;9.158;2023-02-28T15:28:40;8.30;99.90
20759;DHT22;10539;53.686;9.158;2023-02-28T15:31:27;8.20;99.90
20759;DHT22;10539;53.686;9.158;2023-02-28T15:33:56;8.10;99.90
20759;DHT22;10539;53.686;9.158;2023-02-28T15:36:26;8.20;99.90
20759;DHT22;10539;53.686;9.158;2023-02-28T15:38:54;8.20;99.90
20759;DHT22;10539;53.686;9.158;2023-02-28T15:41:35;8.20;99.90
20759;DHT22;10539;53.686;9.158;2023-02-28T15:49:25;8.10;99.90
20759;DHT22;10539;53.686;9.158;2023-02-28T15:51:52;8.10;99.90
20759;DHT22;10539;53.686;9.158;2023-02-28T15:54:23;8.00;99.90
20759;DHT22;10539;53.686;9.158;2023-02-28T15:56:55;8.00;99.90
20759;DHT22;10539;53.686;9.158;2023-02-28T15:59:28;8.00;99.90
20759;DHT22;10539;53.686;9.158;2023-02-28T16:04:35;7.90;99.90
20759;DHT22;10539;53.686;9.158;2023-02-28T16:09:29;8.00;99.90
20759;DHT22;10539;53.686;9.158;2023-02-28T16:11:59;8.00;99.90
20759;DHT22;10539;53.686;9.158;2023-02-28T16:14:27;8.00;99.90
20759;DHT22;10539;53.686;9.158;2023-02-28T16:17:02;7.90;99.90
20759;DHT22;10539;53.686;9.158;2023-02-28T16:19:28;7.90;99.90
20759;DHT22;10539;53.686;9.158;2023-02-28T16:21:54;7.90;99.90
20759;DHT22;10539;53.686;9.158;2023-02-28T16:24:20;7.90;99.90
20759;DHT22;10539;53.686;9.158;2023-02-28T16:26:48;7.90;99.90
20759;DHT22;10539;53.686;9.158;2023-02-28T16:29:36;7.90;99.90
20759;DHT22;10539;53.686;9.158;2023-02-28T16:32:05;7.80;99.90
20759;DHT22;10539;53.686;9.158;2023-02-28T16:34:31;7.70;99.90
20759;DHT22;10539;53.686;9.158;2023-02-28T16:36:57;7.70;99.90
20759;DHT22;10539;53.686;9.158;2023-02-28T16:39:24;7.70;99.90
20759;DHT22;10539;53.686;9.158;2023-02-28T16:41:50;7.70;99.90
20759;DHT22;10539;53.686;9.158;2023-02-28T16:44:29;7.70;99.90
20759;DHT22;10539;53.686;9.158;2023-02-28T16:46:56;7.70;99.90
20759;DHT22;10539;53.686;9.158;2023-02-28T16:49:24;7.70;99.90
20759;DHT22;10539;53.686;9.158;2023-02-28T16:51:50;7.80;99.90
20759;DHT22;10539;53.686;9.158;2023-02-28T16:54:16;7.80;99.90
20759;DHT22;10539;53.686;9.158;2023-02-28T16:56:45;7.80;99.90
20759;DHT22;10539;53.686;9.158;2023-02-28T16:59:11;7.80;99.90
20759;DHT22;10539;53.686;9.158;2023-02-28T17:01:37;7.80;99.90
20759;DHT22;10539;53.686;9.158;2023-02-28T17:04:03;7.80;99.90
20759;DHT22;10539;53.686;9.158;2023-02-28T17:06:30;7.80;99.90
20759;DHT22;10539;53.686;9.158;2023-02-28T17:08:58;7.70;99.90
20759;DHT22;10539;53.686;9.158;2023-02-28T17:11:24;7.70;99.90
20759;DHT22;10539;53.686;9.158;2023-02-28T17:13:51;7.70;99.90
20759;DHT22;10539;53.686;9.158;2023-02-28T17:16:30;7.70;99.90
20759;DHT22;10539;53.686;9.158;2023-02-28T17:19:03;7.70;99.90
20759;DHT22;10539;53.686;9.158;2023-02-28T17:21:30;7.70;99.90
20759;DHT22;10539;53.686;9.158;2023-02-28T17:23:57;7.70;99.90
20759;DHT22;10539;53.686;9.158;2023-02-28T17:26:24;7.60;99.90
20759;DHT22;10539;53.686;9.158;2023-02-28T17:28:55;7.60;99.90
20759;DHT22;10539;53.686;9.158;2023-02-28T17:31:25;7.60;99.90
20759;DHT22;10539;53.686;9.158;2023-02-28T17:33:51;7.50;99.90
20759;DHT22;10539;53.686;9.158;2023-02-28T17:36:23;7.50;99.90
20759;DHT22;10539;53.686;9.158;2023-02-28T17:38:50;7.50;99.90
20759;DHT22;10539;53.686;9.158;2023-02-28T17:41:16;7.50;99.90
20759;DHT22;10539;53.686;9.158;2023-02-28T17:43:41;7.50;99.90
20759;DHT22;10539;53.686;9.158;2023-02-28T17:46:18;7.40;99.90
20759;DHT22;10539;53.686;9.158;2023-02-28T17:48:47;7.40;99.90
20759;DHT22;10539;53.686;9.158;2023-02-28T17:51:14;7.40;99.90
20759;DHT22;10539;53.686;9.158;2023-02-28T17:53:40;7.40;99.90
20759;DHT22;10539;53.686;9.158;2023-02-28T17:56:12;7.40;99.90
20759;DHT22;10539;53.686;9.158;2023-02-28T17:58:38;7.30;99.90
20759;DHT22;10539;53.686;9.158;2023-02-28T18:01:04;7.30;99.90
20759;DHT22;10539;53.686;9.158;2023-02-28T18:03:30;7.10;99.90
20759;DHT22;10539;53.686;9.158;2023-02-28T18:05:57;7.10;99.90
20759;DHT22;10539;53.686;9.158;2023-02-28T18:08:23;6.90;99.90
20759;DHT22;10539;53.686;9.158;2023-02-28T18:10:49;6.80;99.90
20759;DHT22;10539;53.686;9.158;2023-02-28T18:13:15;6.70;99.90
20759;DHT22;10539;53.686;9.158;2023-02-28T18:15:41;6.70;99.90
20759;DHT22;10539;53.686;9.158;2023-02-28T18:18:07;6.60;99.90
20759;DHT22;10539;53.686;9.158;2023-02-28T18:20:33;6.60;99.90
20759;DHT22;10539;53.686;9.158;2023-02-28T18:23:00;6.60;99.90
20759;DHT22;10539;53.686;9.158;2023-02-28T18:25:26;6.60;99.90
20759;DHT22;10539;53.686;9.158;2023-02-28T18:27:52;6.60;99.90
20759;DHT22;10539;53.686;9.158;2023-02-28T18:30:26;6.50;99.90
20759;DHT22;10539;53.686;9.158;2023-02-28T18:32:57;6.40;99.90
20759;DHT22;10539;53.686;9.158;2023-02-28T18:35:24;6.30;99.90